createdAt,value
2023-04-24T00:08:12.068Z,11.85
2023-04-24T00:18:33.069Z,11.82
2023-04-24T00:28:54.436Z,11.80
2023-04-24T00:39:16.776Z,11.78
2023-04-24T00:49:38.179Z,11.76
2023-04-24T00:59:59.540Z,11.73
2023-04-24T01:10:21.566Z,11.73
2023-04-24T01:20:45.280Z,11.70
2023-04-24T01:31:07.128Z,11.67
2023-04-24T01:41:28.909Z,11.66
2023-04-24T01:51:49.969Z,11.65
2023-04-24T02:02:11.160Z,11.63
2023-04-24T02:12:32.639Z,11.58
2023-04-24T02:22:54.273Z,11.57
2023-04-24T02:33:15.999Z,11.54
2023-04-24T02:43:37.059Z,11.53
2023-04-24T02:53:58.750Z,11.50
2023-04-24T03:04:21.631Z,11.49
2023-04-24T03:14:43.555Z,11.47
2023-04-24T03:25:05.401Z,11.42
2023-04-24T03:35:26.989Z,11.40
2023-04-24T03:45:49.069Z,11.37
2023-04-24T03:56:12.340Z,11.36
2023-04-24T04:06:37.418Z,11.36
2023-04-24T04:16:59.993Z,11.35
2023-04-24T04:27:22.700Z,11.33
2023-04-24T04:37:52.683Z,11.31
2023-04-24T04:48:28.766Z,11.31
2023-04-24T04:58:53.027Z,11.30
2023-04-24T05:09:14.444Z,11.27
2023-04-24T05:19:45.240Z,11.26
2023-04-24T05:30:09.153Z,11.24
2023-04-24T05:40:31.011Z,11.24
2023-04-24T05:50:53.699Z,11.24
2023-04-24T06:01:17.936Z,11.24
2023-04-24T06:11:44.021Z,11.24
2023-04-24T06:22:08.513Z,11.26
2023-04-24T06:32:32.289Z,11.26
2023-04-24T06:42:54.741Z,11.27
2023-04-24T06:53:15.888Z,11.27
2023-04-24T07:03:37.926Z,11.27
2023-04-24T07:13:59.595Z,11.27
2023-04-24T07:24:22.292Z,11.26
2023-04-24T07:34:44.098Z,11.26
2023-04-24T07:45:06.150Z,11.27
2023-04-24T07:55:28.346Z,11.28
2023-04-24T08:05:49.938Z,11.33
2023-04-24T08:16:11.593Z,11.37
2023-04-24T08:26:33.164Z,11.45
2023-04-24T08:36:54.495Z,11.55
2023-04-24T08:47:16.609Z,11.65
2023-04-24T08:57:41.404Z,11.71
2023-04-24T09:08:03.364Z,11.78
2023-04-24T09:18:24.646Z,11.83
2023-04-24T09:28:47.297Z,11.86
2023-04-24T09:39:21.405Z,11.95
2023-04-24T09:49:45.222Z,12.06
2023-04-24T10:00:07.495Z,12.19
2023-04-24T10:10:35.287Z,12.32
2023-04-24T10:20:57.370Z,12.44
2023-04-24T10:31:18.962Z,12.62
2023-04-24T10:41:40.096Z,12.71
2023-04-24T10:52:02.684Z,12.80
2023-04-24T11:02:37.694Z,12.96
2023-04-24T11:12:59.022Z,13.10
2023-04-24T11:23:20.621Z,13.16
2023-04-24T11:33:41.971Z,13.12
2023-04-24T11:44:04.640Z,12.97
2023-04-24T11:54:26.321Z,12.84
2023-04-24T12:04:48.851Z,12.71
2023-04-24T12:15:11.068Z,12.62
2023-04-24T12:25:33.989Z,12.54
2023-04-24T12:35:56.625Z,12.57
2023-04-24T12:46:19.353Z,12.63
2023-04-24T12:56:42.152Z,12.82
2023-04-24T13:07:03.416Z,12.97
2023-04-24T13:17:24.482Z,13.04
2023-04-24T13:27:45.972Z,13.03
2023-04-24T13:38:12.211Z,12.99
2023-04-24T13:48:33.664Z,13.02
2023-04-24T13:58:57.443Z,13.06
2023-04-24T14:09:18.665Z,13.13
2023-04-24T14:19:39.885Z,13.21
2023-04-24T14:30:01.184Z,13.30
2023-04-24T14:40:45.400Z,13.34
2023-04-24T14:51:03.793Z,13.36
2023-04-24T15:01:27.840Z,13.36
2023-04-24T15:11:49.894Z,13.39
2023-04-24T15:22:12.428Z,13.37
2023-04-24T15:32:34.235Z,13.31
2023-04-24T15:42:55.408Z,13.27
2023-04-24T15:53:22.665Z,13.19
2023-04-24T16:03:44.581Z,13.11
2023-04-24T16:14:07.091Z,13.05
2023-04-24T16:24:29.480Z,13.03
2023-04-24T16:34:50.867Z,12.97
2023-04-24T16:45:12.302Z,12.92
2023-04-24T16:55:33.674Z,12.86
2023-04-24T17:05:54.859Z,12.79
2023-04-24T17:16:16.226Z,12.73
2023-04-24T17:26:37.638Z,12.66
2023-04-24T17:36:59.117Z,12.61
2023-04-24T17:47:22.737Z,12.54
2023-04-24T17:57:43.894Z,12.52
2023-04-24T18:08:05.578Z,12.49
2023-04-24T18:18:26.559Z,12.53
2023-04-24T18:28:48.142Z,12.47
2023-04-24T18:39:09.848Z,12.43
2023-04-24T18:49:31.137Z,12.39
2023-04-24T18:59:52.263Z,12.32
2023-04-24T19:10:14.555Z,12.25
2023-04-24T19:20:36.064Z,12.20
2023-04-24T19:30:58.923Z,12.19
2023-04-24T19:41:19.990Z,12.07
2023-04-24T19:51:42.200Z,12.01
2023-04-24T20:02:04.578Z,11.99
2023-04-24T20:12:26.116Z,11.86
2023-04-24T20:22:48.130Z,11.75
2023-04-24T20:33:09.305Z,11.64
2023-04-24T20:43:30.454Z,11.57
2023-04-24T20:53:51.812Z,11.54
2023-04-24T21:04:12.957Z,11.50
2023-04-24T21:14:34.175Z,11.50
2023-04-24T21:24:55.817Z,11.40
2023-04-24T21:35:17.197Z,11.32
2023-04-24T21:45:38.524Z,11.31
2023-04-24T21:56:00.006Z,11.29
2023-04-24T22:06:21.262Z,11.24
2023-04-24T22:16:43.334Z,11.18
2023-04-24T22:27:04.585Z,11.12
2023-04-24T22:37:25.942Z,11.11
2023-04-24T22:47:47.374Z,11.05
2023-04-24T22:58:08.353Z,10.96
2023-04-24T23:08:30.792Z,10.91
2023-04-24T23:18:51.960Z,10.91
2023-04-24T23:29:12.860Z,10.89
2023-04-24T23:39:34.019Z,10.87
2023-04-24T23:49:55.675Z,10.73
